Avon Downs, Australia
Current Conditions -  °F | °C
As of 3:00 PM on Friday 19 Dec 2014 (Local Time) from YBMA Reporting Station
Scattered Clouds Scattered Clouds  
Wind Chill: 97°   Ceiling: Unl
Heat Index: 97°   Visibility: 6mi
Dew Point: 57°   Wind: 7mph
Humidity: 27%   Direction: 150°SSE
Pressure: 29.8"   Gusts: NA
Location:  20.02°S, 137.67°E
Report Text: YBMA 190600Z AUTO 15006KT 9999 // SCT088 36/14 Q1009
Loading
Personal Weather Stations






























Interactive Weather Map New forecast layout! Learn more

10-Day Weather Forecast

Advertisements
Track Severe Weather on mobile